Time;durP1;ratioP1;P1;durP2;ratioP2;P2;SDS_P1;SDS_P2;PMS_P1;PMS_P2;Temp;Humidity;BMP_temperature;BMP_pressure;BME280_temperature;BME280_humidity;BME280_pressure;Samples;Min_cycle;Max_cycle;Signal;HPM_P1;HPM_P2
2023/02/24 00:00:31;;;;;;;10.10;2.03;;;4.50;99.90;;;;;;5039132;28;20029;-71
2023/02/24 00:02:51;;;;;;;14.98;2.33;;;4.60;99.90;;;;;;5039324;28;20033;-73
2023/02/24 00:05:17;;;;;;;12.00;1.77;;;4.70;99.90;;;;;;5038019;28;20030;-72
2023/02/24 00:07:43;;;;;;;14.43;2.10;;;4.60;99.90;;;;;;5037306;28;20026;-70
2023/02/24 00:10:09;;;;;;;16.05;2.20;;;4.60;99.90;;;;;;5038392;28;20032;-72
2023/02/24 00:12:35;;;;;;;13.00;2.13;;;4.60;99.90;;;;;;5037447;28;20043;-73
2023/02/24 00:15:01;;;;;;;19.63;2.15;;;4.60;99.90;;;;;;5039393;28;20045;-71
2023/02/24 00:17:29;;;;;;;15.13;1.85;;;4.60;99.90;;;;;;5037119;28;20029;-71
2023/02/24 00:19:55;;;;;;;18.77;2.45;;;4.70;99.90;;;;;;5038336;28;20018;-72
2023/02/24 00:22:20;;;;;;;12.43;1.80;;;4.60;99.90;;;;;;5039175;28;20028;-72
2023/02/24 00:24:46;;;;;;;12.07;1.87;;;4.50;99.90;;;;;;5002354;28;1058314;-71
2023/02/24 00:27:12;;;;;;;11.85;1.80;;;4.50;99.90;;;;;;5040183;28;20021;-74
2023/02/24 00:29:40;;;;;;;12.80;1.63;;;4.50;99.90;;;;;;5039881;28;20060;-70
2023/02/24 00:32:11;;;;;;;12.93;2.10;;;4.50;99.90;;;;;;5039496;28;20034;-71
2023/02/24 00:34:37;;;;;;;10.95;2.00;;;4.50;99.90;;;;;;5040121;28;20028;-70
2023/02/24 00:37:05;;;;;;;8.18;1.90;;;4.50;99.90;;;;;;5039961;28;20092;-70
2023/02/24 00:39:34;;;;;;;13.07;2.00;;;4.60;99.90;;;;;;5037867;28;20034;-70
2023/02/24 00:42:03;;;;;;;14.20;2.15;;;4.60;99.90;;;;;;5039531;28;20029;-71
2023/02/24 00:44:34;;;;;;;16.23;2.55;;;4.60;99.90;;;;;;5039398;28;20036;-71
2023/02/24 00:47:01;;;;;;;14.00;2.05;;;4.60;99.90;;;;;;5040071;28;20053;-70
2023/02/24 00:49:28;;;;;;;14.20;2.15;;;4.60;99.90;;;;;;5037574;28;20033;-70
2023/02/24 00:51:54;;;;;;;12.98;1.58;;;4.60;99.90;;;;;;5039317;28;20049;-72
2023/02/24 00:54:20;;;;;;;9.13;1.63;;;4.60;99.90;;;;;;5039868;28;20045;-74
2023/02/24 00:56:47;;;;;;;14.38;1.70;;;4.60;99.90;;;;;;5039923;28;20029;-70
2023/02/24 00:59:17;;;;;;;12.73;1.85;;;4.60;99.90;;;;;;5039280;28;20029;-72
2023/02/24 01:01:44;;;;;;;9.00;1.63;;;4.60;99.90;;;;;;5039687;28;20056;-74
2023/02/24 01:04:11;;;;;;;13.70;1.67;;;4.60;99.90;;;;;;5038032;28;20534;-71
2023/02/24 01:06:46;;;;;;;8.95;1.67;;;4.60;99.90;;;;;;5038439;28;20498;-70
2023/02/24 01:09:14;;;;;;;7.63;1.58;;;4.60;99.90;;;;;;5039093;28;20467;-73
2023/02/24 01:14:29;;;;;;;12.15;1.33;;;4.70;99.90;;;;;;5039358;28;20060;-73
2023/02/24 01:16:55;;;;;;;11.95;1.75;;;4.70;99.90;;;;;;5039052;28;20022;-70
2023/02/24 01:19:30;;;;;;;9.60;1.33;;;4.70;99.90;;;;;;5039363;28;20087;-69
2023/02/24 01:22:08;;;;;;;11.40;1.45;;;4.70;99.90;;;;;;5041507;28;20036;-71
2023/02/24 01:24:37;;;;;;;18.38;2.17;;;4.70;99.90;;;;;;5039734;28;20030;-70
2023/02/24 01:27:03;;;;;;;8.75;1.40;;;4.70;99.90;;;;;;5043423;28;20049;-71
2023/02/24 01:29:29;;;;;;;12.02;1.80;;;4.60;99.90;;;;;;5042376;28;20017;-70
2023/02/24 01:31:57;;;;;;;11.63;1.70;;;4.80;99.90;;;;;;5043147;28;20052;-68
2023/02/24 01:34:24;;;;;;;16.13;1.98;;;4.70;99.90;;;;;;5042067;28;20033;-69
2023/02/24 01:36:49;;;;;;;12.82;1.85;;;4.70;99.90;;;;;;5042637;28;20124;-70
2023/02/24 01:39:15;;;;;;;12.98;1.90;;;4.70;99.90;;;;;;5041893;28;20045;-71
2023/02/24 01:41:43;;;;;;;13.57;2.03;;;4.60;99.90;;;;;;5043323;28;20035;-70
2023/02/24 01:44:12;;;;;;;13.38;1.70;;;4.70;99.90;;;;;;5042455;28;20025;-71
2023/02/24 01:46:43;;;;;;;23.08;1.85;;;4.60;99.90;;;;;;5042462;28;20423;-70
2023/02/24 01:49:23;;;;;;;14.20;1.83;;;4.60;99.90;;;;;;5040098;28;20558;-69
2023/02/24 01:52:05;;;;;;;8.35;2.00;;;4.60;99.90;;;;;;5042154;28;20124;-72
2023/02/24 01:54:40;;;;;;;9.60;1.60;;;4.60;99.90;;;;;;5042035;28;20025;-70
2023/02/24 01:57:07;;;;;;;11.65;2.22;;;4.60;99.90;;;;;;5041216;28;20640;-69
2023/02/24 01:59:34;;;;;;;15.52;2.00;;;4.60;99.90;;;;;;5041898;28;20029;-69
2023/02/24 02:02:05;;;;;;;9.80;1.70;;;4.50;99.90;;;;;;5040855;28;20104;-70
2023/02/24 02:04:44;;;;;;;6.75;1.20;;;4.50;99.90;;;;;;5041840;28;20112;-68
2023/02/24 02:07:14;;;;;;;12.77;1.52;;;4.50;99.90;;;;;;5041282;28;20041;-70
2023/02/24 02:09:40;;;;;;;11.95;1.45;;;4.50;99.90;;;;;;5041311;28;20061;-71
2023/02/24 02:12:08;;;;;;;15.98;1.65;;;4.50;99.90;;;;;;5041525;28;20510;-72
2023/02/24 02:14:46;;;;;;;12.32;1.65;;;4.50;99.90;;;;;;5042005;28;20029;-70
2023/02/24 02:17:23;;;;;;;14.88;1.85;;;4.40;99.90;;;;;;5042032;28;20478;-72
2023/02/24 02:20:01;;;;;;;27.95;2.13;;;4.50;99.90;;;;;;5040758;28;20443;-71
2023/02/24 02:22:53;;;;;;;6.07;1.38;;;4.50;99.90;;;;;;5041495;28;20083;-68
2023/02/24 02:25:42;;;;;;;6.80;1.48;;;4.50;99.90;;;;;;5040471;28;20102;-69
2023/02/24 02:28:23;;;;;;;10.10;1.70;;;4.40;99.90;;;;;;5041143;28;20026;-69
2023/02/24 02:31:19;;;;;;;8.75;1.63;;;4.40;99.90;;;;;;5040302;28;20034;-71
2023/02/24 02:34:10;;;;;;;17.15;1.83;;;4.40;99.90;;;;;;5040600;28;20083;-69
2023/02/24 02:36:57;;;;;;;13.23;1.75;;;4.40;99.90;;;;;;5041569;28;20056;-70
2023/02/24 02:39:51;;;;;;;13.05;1.52;;;4.40;99.90;;;;;;5039851;28;20037;-69
2023/02/24 02:42:28;;;;;;;5.63;1.60;;;4.40;99.90;;;;;;5020149;28;20041;-71
2023/02/24 02:45:23;;;;;;;8.45;1.80;;;4.40;99.90;;;;;;5041102;28;20034;-71
2023/02/24 02:48:05;;;;;;;9.82;1.48;;;4.30;99.90;;;;;;5040453;28;20039;-70
2023/02/24 02:50:42;;;;;;;11.15;2.03;;;4.30;99.90;;;;;;5039698;28;20037;-71
2023/02/24 02:53:16;;;;;;;13.93;1.63;;;4.30;99.90;;;;;;5040660;28;20025;-69
2023/02/24 02:55:52;;;;;;;10.75;1.40;;;4.30;99.90;;;;;;5047423;28;20030;-71
2023/02/24 02:58:25;;;;;;;11.00;1.33;;;4.30;99.90;;;;;;5041369;28;20093;-71
2023/02/24 03:01:00;;;;;;;8.60;1.95;;;4.30;99.90;;;;;;5040735;28;20025;-69
2023/02/24 03:03:31;;;;;;;11.40;1.65;;;4.20;99.90;;;;;;5040945;28;20024;-70
2023/02/24 03:06:10;;;;;;;8.55;1.80;;;4.20;99.90;;;;;;5041068;28;20018;-70
2023/02/24 03:08:54;;;;;;;11.30;1.85;;;4.20;99.90;;;;;;5039844;28;20048;-70
2023/02/24 03:11:20;;;;;;;13.90;2.00;;;4.20;99.90;;;;;;5040912;28;20044;-73
2023/02/24 03:13:48;;;;;;;12.55;1.52;;;4.30;99.90;;;;;;5039526;28;20260;-71
2023/02/24 03:16:17;;;;;;;9.63;2.00;;;4.20;99.90;;;;;;5040653;28;20033;-71
2023/02/24 03:18:49;;;;;;;7.00;1.55;;;4.20;99.90;;;;;;5040987;28;20451;-71
2023/02/24 03:21:34;;;;;;;6.47;1.75;;;4.20;99.90;;;;;;5039414;28;20021;-70
2023/02/24 03:24:01;;;;;;;16.67;1.90;;;4.20;99.90;;;;;;5039666;28;20033;-69
2023/02/24 03:26:31;;;;;;;13.45;1.80;;;4.20;99.90;;;;;;5040541;28;20041;-71
2023/02/24 03:29:17;;;;;;;7.82;1.40;;;4.20;99.90;;;;;;5039431;28;20079;-70
2023/02/24 03:31:49;;;;;;;12.98;1.83;;;4.20;99.90;;;;;;5040413;28;20124;-69
2023/02/24 03:34:26;;;;;;;8.10;1.48;;;4.20;99.90;;;;;;5040907;28;20089;-71
2023/02/24 03:36:53;;;;;;;10.43;1.92;;;4.20;99.90;;;;;;5040565;28;20048;-69
2023/02/24 03:39:19;;;;;;;11.95;2.13;;;4.20;99.90;;;;;;5040003;28;20045;-69
2023/02/24 03:42:07;;;;;;;11.05;1.88;;;4.20;99.90;;;;;;5040256;28;20021;-69
2023/02/24 03:44:35;;;;;;;8.68;1.35;;;4.20;99.90;;;;;;5039947;28;20034;-70
2023/02/24 03:47:01;;;;;;;11.90;1.98;;;4.20;99.90;;;;;;5040335;28;20017;-70
2023/02/24 03:49:27;;;;;;;7.60;1.38;;;4.20;99.90;;;;;;5041213;28;20024;-70
2023/02/24 03:52:20;;;;;;;10.70;1.63;;;4.20;99.90;;;;;;5041288;28;20060;-69
2023/02/24 03:55:15;;;;;;;19.00;1.83;;;4.20;99.90;;;;;;5041156;28;20367;-70
2023/02/24 03:58:11;;;;;;;10.40;1.73;;;4.20;99.90;;;;;;5040401;28;20042;-70
2023/02/24 04:01:04;;;;;;;7.05;1.75;;;4.10;99.90;;;;;;5040784;28;20026;-70
2023/02/24 04:03:52;;;;;;;10.40;1.77;;;4.10;99.90;;;;;;5039563;28;20033;-72
2023/02/24 04:06:29;;;;;;;7.30;1.55;;;4.10;99.90;;;;;;5041228;28;20040;-73
2023/02/24 04:09:25;;;;;;;15.20;2.17;;;4.10;99.90;;;;;;5037529;28;20025;-70
2023/02/24 04:12:03;;;;;;;8.50;1.85;;;4.00;99.90;;;;;;5041106;28;20053;-73
2023/02/24 04:14:34;;;;;;;10.00;1.60;;;4.00;99.90;;;;;;5041043;28;20065;-70
2023/02/24 04:17:13;;;;;;;9.60;1.50;;;4.00;99.90;;;;;;5040887;28;20382;-72
2023/02/24 04:19:42;;;;;;;8.43;1.42;;;4.00;99.90;;;;;;5039291;28;20175;-72
2023/02/24 04:22:12;;;;;;;8.27;1.67;;;4.00;99.90;;;;;;5040986;28;20026;-72
2023/02/24 04:24:40;;;;;;;14.95;2.00;;;4.00;99.90;;;;;;5040146;28;20034;-70
2023/02/24 04:27:11;;;;;;;11.02;1.45;;;4.00;99.90;;;;;;5039715;28;20026;-72
2023/02/24 04:29:46;;;;;;;12.35;1.50;;;4.00;99.90;;;;;;5039141;28;20033;-71
2023/02/24 04:32:15;;;;;;;8.48;1.50;;;4.00;99.90;;;;;;5039721;28;20030;-73
2023/02/24 04:34:40;;;;;;;8.32;1.52;;;4.00;99.90;;;;;;5039834;28;21083;-71
2023/02/24 04:37:07;;;;;;;14.20;2.28;;;4.00;99.90;;;;;;5041008;28;20025;-75
2023/02/24 04:39:35;;;;;;;12.48;3.45;;;4.00;99.90;;;;;;5039636;28;20022;-73
2023/02/24 04:42:04;;;;;;;9.30;2.58;;;3.90;99.90;;;;;;5039164;28;20037;-74
2023/02/24 04:44:31;;;;;;;7.47;1.38;;;4.00;99.90;;;;;;5040329;28;20014;-73
2023/02/24 04:46:57;;;;;;;9.80;1.55;;;3.90;99.90;;;;;;5039491;28;20095;-71
2023/02/24 04:49:24;;;;;;;14.85;1.70;;;3.90;99.90;;;;;;5040281;28;20026;-71
2023/02/24 04:51:50;;;;;;;13.65;1.77;;;3.90;99.90;;;;;;5040377;28;20038;-71
2023/02/24 04:54:18;;;;;;;9.27;1.70;;;3.90;99.90;;;;;;5039559;28;20029;-71
2023/02/24 04:56:46;;;;;;;15.25;1.95;;;3.90;99.90;;;;;;5043055;28;20017;-73
2023/02/24 04:59:13;;;;;;;7.50;1.88;;;3.90;99.90;;;;;;5044739;28;20028;-73
2023/02/24 05:01:41;;;;;;;7.45;1.67;;;3.90;99.90;;;;;;5044328;28;20025;-73
2023/02/24 05:04:07;;;;;;;8.98;1.63;;;3.90;99.90;;;;;;5044480;28;20048;-73
2023/02/24 05:06:33;;;;;;;11.10;1.60;;;3.90;99.90;;;;;;5042060;28;20113;-69
2023/02/24 05:09:12;;;;;;;11.40;1.55;;;3.90;99.90;;;;;;5042740;28;20030;-71
2023/02/24 05:11:41;;;;;;;10.98;1.77;;;3.90;99.90;;;;;;5044129;28;20104;-70
2023/02/24 05:14:13;;;;;;;10.38;2.08;;;3.90;99.90;;;;;;5043128;28;20025;-73
2023/02/24 05:16:41;;;;;;;6.20;1.50;;;3.90;99.90;;;;;;5044399;28;20163;-71
2023/02/24 05:21:51;;;;;;;15.05;2.30;;;3.90;99.90;;;;;;5043940;28;20398;-70
2023/02/24 05:24:16;;;;;;;16.15;2.03;;;3.90;99.90;;;;;;5043079;28;20018;-73
2023/02/24 05:26:42;;;;;;;15.77;1.60;;;3.90;99.90;;;;;;5044003;28;20049;-71
2023/02/24 05:29:09;;;;;;;14.90;1.60;;;3.90;99.90;;;;;;5043176;28;20030;-73
2023/02/24 05:31:36;;;;;;;8.93;1.88;;;3.90;99.90;;;;;;5043817;28;20041;-72
2023/02/24 05:34:04;;;;;;;14.57;1.55;;;3.90;99.90;;;;;;5042131;28;20040;-73
2023/02/24 05:36:41;;;;;;;5.10;1.60;;;3.90;99.90;;;;;;5043049;28;20045;-72
2023/02/24 05:39:11;;;;;;;12.48;2.15;;;3.90;99.90;;;;;;5043015;28;20722;-71
2023/02/24 05:41:40;;;;;;;16.98;2.28;;;3.90;99.90;;;;;;5042328;28;20451;-73
2023/02/24 05:44:12;;;;;;;13.30;2.17;;;3.90;99.90;;;;;;5042127;28;20022;-69
2023/02/24 05:46:40;;;;;;;10.52;2.08;;;3.90;99.90;;;;;;5043825;28;20368;-73
2023/02/24 05:49:13;;;;;;;8.90;1.48;;;3.90;99.90;;;;;;5041818;28;20093;-70
2023/02/24 05:51:42;;;;;;;7.80;2.20;;;3.90;99.90;;;;;;5040917;28;20113;-72
2023/02/24 05:54:12;;;;;;;12.65;1.75;;;3.90;99.90;;;;;;5042434;28;20048;-70
2023/02/24 05:56:42;;;;;;;9.35;1.75;;;3.90;99.90;;;;;;5042550;28;20132;-72
2023/02/24 05:59:10;;;;;;;14.02;2.25;;;3.90;99.90;;;;;;5043280;28;20031;-72
2023/02/24 06:01:44;;;;;;;12.85;2.55;;;3.90;99.90;;;;;;5042885;28;20103;-71
2023/02/24 06:04:19;;;;;;;11.13;1.80;;;3.90;99.90;;;;;;5042379;28;20053;-71
2023/02/24 06:06:51;;;;;;;12.35;2.40;;;3.90;99.90;;;;;;5043093;28;20029;-70
2023/02/24 06:09:18;;;;;;;16.40;2.15;;;3.80;99.90;;;;;;5043583;28;20037;-70
2023/02/24 06:11:44;;;;;;;17.13;1.60;;;3.80;99.90;;;;;;5043222;28;20041;-73
2023/02/24 06:14:11;;;;;;;9.52;2.17;;;3.80;99.90;;;;;;5043736;28;20036;-72
2023/02/24 06:16:39;;;;;;;15.60;1.83;;;3.70;99.90;;;;;;5040617;28;20053;-73
2023/02/24 06:19:06;;;;;;;13.45;2.30;;;3.70;99.90;;;;;;5039936;28;20029;-70
2023/02/24 06:21:34;;;;;;;9.95;2.10;;;3.60;99.90;;;;;;5042849;28;20052;-71
2023/02/24 06:24:01;;;;;;;7.57;2.20;;;3.50;99.90;;;;;;5040786;28;20029;-74
2023/02/24 06:26:32;;;;;;;11.57;1.83;;;3.50;99.90;;;;;;5056079;28;20049;-71
2023/02/24 06:28:58;;;;;;;13.98;2.55;;;3.40;99.90;;;;;;5041146;28;20021;-73
2023/02/24 06:31:26;;;;;;;9.52;2.28;;;3.40;99.90;;;;;;5042682;28;20018;-71
2023/02/24 06:33:52;;;;;;;17.20;1.90;;;3.40;99.90;;;;;;5041205;28;20031;-72
2023/02/24 06:36:18;;;;;;;14.82;2.13;;;3.30;99.90;;;;;;5039709;28;20430;-73
2023/02/24 06:38:45;;;;;;;13.57;2.17;;;3.30;99.90;;;;;;5041540;28;20030;-74
2023/02/24 06:41:11;;;;;;;12.32;2.38;;;3.20;99.90;;;;;;5042857;28;20029;-72
2023/02/24 06:43:42;;;;;;;8.15;1.85;;;3.20;99.90;;;;;;5040030;28;20030;-73
2023/02/24 06:46:12;;;;;;;10.07;2.00;;;3.20;99.90;;;;;;5039461;28;20037;-77
2023/02/24 06:48:38;;;;;;;12.00;2.13;;;3.20;99.90;;;;;;5041482;28;20030;-74
2023/02/24 06:51:12;;;;;;;17.05;2.15;;;3.20;99.90;;;;;;5042322;28;20466;-71
2023/02/24 06:53:41;;;;;;;13.48;1.77;;;3.20;99.90;;;;;;5040999;28;20124;-72
2023/02/24 06:56:13;;;;;;;12.13;2.10;;;3.20;99.90;;;;;;5040088;28;20043;-73
2023/02/24 06:58:44;;;;;;;10.52;2.15;;;3.20;99.90;;;;;;5041012;28;20425;-71
2023/02/24 07:01:14;;;;;;;24.27;2.70;;;3.20;99.90;;;;;;5040397;28;20021;-73
2023/02/24 07:03:46;;;;;;;15.40;1.95;;;3.20;99.90;;;;;;5039627;28;20037;-72
2023/02/24 07:06:22;;;;;;;13.25;2.50;;;3.10;99.90;;;;;;5039324;28;20026;-73
2023/02/24 07:08:50;;;;;;;26.48;2.75;;;3.20;99.90;;;;;;5040955;28;20549;-72
2023/02/24 07:11:17;;;;;;;11.35;2.90;;;3.20;99.90;;;;;;5039098;28;20048;-72
2023/02/24 07:13:46;;;;;;;16.85;2.33;;;3.10;99.90;;;;;;5041389;28;20029;-73
2023/02/24 07:16:17;;;;;;;14.60;2.60;;;3.20;99.90;;;;;;5039036;28;20036;-71
2023/02/24 07:18:47;;;;;;;13.23;2.65;;;3.20;99.90;;;;;;5039928;28;20037;-72
2023/02/24 07:21:15;;;;;;;14.07;2.40;;;3.20;99.90;;;;;;5040462;28;20398;-72
2023/02/24 07:23:43;;;;;;;21.85;2.65;;;3.20;99.90;;;;;;5040403;28;20100;-71
2023/02/24 07:26:11;;;;;;;15.65;2.28;;;3.10;99.90;;;;;;5041879;28;20048;-72
2023/02/24 07:28:42;;;;;;;11.07;2.13;;;3.20;99.90;;;;;;5039836;28;20029;-73
2023/02/24 07:31:17;;;;;;;9.65;2.40;;;3.20;99.90;;;;;;5032759;28;20449;-71
2023/02/24 07:33:44;;;;;;;10.48;1.83;;;3.20;99.90;;;;;;5032977;28;20045;-72
2023/02/24 07:36:17;;;;;;;12.73;2.70;;;3.20;99.90;;;;;;5037934;28;20049;-72
2023/02/24 07:38:44;;;;;;;16.45;2.92;;;3.20;99.90;;;;;;5038962;28;20068;-70
2023/02/24 07:41:11;;;;;;;10.75;2.65;;;3.20;99.90;;;;;;5041465;28;20033;-72
2023/02/24 07:43:39;;;;;;;22.48;3.65;;;3.20;99.90;;;;;;5038694;28;20020;-74
2023/02/24 07:46:14;;;;;;;15.43;2.58;;;3.20;99.90;;;;;;5040117;28;20026;-73
2023/02/24 07:48:43;;;;;;;12.02;2.35;;;3.10;99.90;;;;;;5041070;28;20128;-71
2023/02/24 07:51:10;;;;;;;16.08;3.15;;;3.20;99.90;;;;;;5040734;28;20562;-71
2023/02/24 07:53:39;;;;;;;18.25;3.17;;;3.10;99.90;;;;;;5041226;28;20042;-71
2023/02/24 07:56:12;;;;;;;9.70;2.80;;;3.10;99.90;;;;;;5039916;28;20497;-72
2023/02/24 07:58:43;;;;;;;12.70;3.10;;;3.10;99.90;;;;;;5041140;28;20025;-72
2023/02/24 08:01:16;;;;;;;19.80;3.17;;;3.10;99.90;;;;;;5038707;28;20036;-73
2023/02/24 08:03:43;;;;;;;9.43;2.75;;;3.10;99.90;;;;;;5040080;28;20025;-73
2023/02/24 08:06:14;;;;;;;13.98;3.53;;;3.10;99.90;;;;;;5040029;28;20029;-74
2023/02/24 08:09:09;;;;;;;8.80;2.60;;;3.10;99.90;;;;;;5039679;28;20018;-72
2023/02/24 08:11:35;;;;;;;10.98;2.85;;;3.10;99.90;;;;;;5040604;28;20175;-72
2023/02/24 08:14:12;;;;;;;18.30;3.33;;;3.00;99.90;;;;;;5041356;28;20053;-73
2023/02/24 08:16:40;;;;;;;21.13;3.30;;;3.00;99.90;;;;;;5039256;28;20026;-72
2023/02/24 08:19:07;;;;;;;9.68;2.92;;;3.00;99.90;;;;;;5040334;28;20033;-72
2023/02/24 08:21:40;;;;;;;16.88;3.67;;;3.00;99.90;;;;;;5041511;28;20049;-70
2023/02/24 08:24:16;;;;;;;11.13;3.00;;;3.00;99.90;;;;;;5039466;28;20030;-73
2023/02/24 08:27:04;;;;;;;10.32;3.33;;;3.00;99.90;;;;;;5040937;28;20045;-73
2023/02/24 08:29:56;;;;;;;13.65;3.10;;;3.00;99.90;;;;;;5040117;28;20052;-72
2023/02/24 08:32:42;;;;;;;14.65;3.67;;;2.90;99.90;;;;;;5042933;28;20040;-73
2023/02/24 08:35:14;;;;;;;12.20;3.10;;;3.00;99.90;;;;;;5041725;28;20037;-72
2023/02/24 08:37:46;;;;;;;13.85;3.22;;;2.90;99.90;;;;;;5038673;28;20421;-71
2023/02/24 08:40:36;;;;;;;8.55;2.90;;;2.90;99.90;;;;;;5041611;28;20035;-75
2023/02/24 08:43:15;;;;;;;19.90;4.10;;;2.90;99.90;;;;;;5041471;28;20048;-72
2023/02/24 08:45:58;;;;;;;13.20;3.92;;;2.90;99.90;;;;;;5042884;28;20132;-71
2023/02/24 08:48:47;;;;;;;14.63;3.25;;;2.90;99.90;;;;;;5037714;28;20026;-72
2023/02/24 08:51:21;;;;;;;16.23;4.05;;;2.90;99.90;;;;;;5039879;28;20029;-72
2023/02/24 08:53:51;;;;;;;21.73;4.63;;;2.90;99.90;;;;;;5042162;28;20059;-74
2023/02/24 08:56:22;;;;;;;11.73;3.97;;;2.90;99.90;;;;;;5042184;28;20470;-73
2023/02/24 08:58:55;;;;;;;19.50;4.22;;;2.90;99.90;;;;;;5042009;28;20045;-73
2023/02/24 09:01:24;;;;;;;14.95;3.55;;;2.90;99.90;;;;;;5042124;28;20057;-73
2023/02/24 09:03:57;;;;;;;12.48;4.22;;;2.90;99.90;;;;;;5042374;28;20132;-73
2023/02/24 09:06:43;;;;;;;11.32;4.63;;;2.90;99.90;;;;;;5043590;28;20798;-73
2023/02/24 09:09:17;;;;;;;18.00;4.43;;;2.80;99.90;;;;;;5041086;28;20108;-72
2023/02/24 09:11:45;;;;;;;16.63;4.57;;;2.90;99.90;;;;;;5044577;28;20375;-71
2023/02/24 09:14:16;;;;;;;15.57;5.05;;;2.90;99.90;;;;;;5039952;28;20026;-75
2023/02/24 09:17:04;;;;;;;21.95;5.43;;;2.90;99.90;;;;;;5041605;28;20029;-73
2023/02/24 09:22:30;;;;;;;17.42;5.57;;;2.90;99.90;;;;;;5042268;28;20032;-72
2023/02/24 09:25:16;;;;;;;18.45;5.70;;;2.90;99.90;;;;;;5040824;28;20415;-74
2023/02/24 09:27:53;;;;;;;15.90;5.32;;;2.90;99.90;;;;;;5041196;28;20052;-73
2023/02/24 09:30:35;;;;;;;18.80;6.75;;;3.00;99.90;;;;;;5042125;28;20084;-73
2023/02/24 09:33:18;;;;;;;15.60;5.07;;;3.00;99.90;;;;;;5041530;28;20043;-73
2023/02/24 09:35:46;;;;;;;14.25;6.30;;;3.00;99.90;;;;;;5043878;28;20017;-73
2023/02/24 09:38:15;;;;;;;20.98;6.05;;;3.00;99.90;;;;;;5041396;28;20058;-73
2023/02/24 09:40:49;;;;;;;16.65;6.45;;;3.00;99.90;;;;;;5041850;28;20053;-73
2023/02/24 09:43:19;;;;;;;20.70;7.10;;;3.00;99.90;;;;;;5038989;28;20029;-74
2023/02/24 09:46:15;;;;;;;23.70;7.85;;;3.10;99.90;;;;;;5037743;28;20490;-72
2023/02/24 09:48:53;;;;;;;18.17;5.25;;;3.20;99.90;;;;;;5041583;28;20044;-72
2023/02/24 09:51:20;;;;;;;16.98;6.90;;;3.10;99.90;;;;;;5041593;28;20024;-73
2023/02/24 09:53:53;;;;;;;21.95;6.68;;;3.10;99.90;;;;;;5040063;28;20041;-75
2023/02/24 09:56:35;;;;;;;16.35;7.28;;;3.20;99.90;;;;;;5043348;28;20421;-73
2023/02/24 09:59:12;;;;;;;21.52;8.18;;;3.20;99.90;;;;;;5042232;28;20406;-72
2023/02/24 10:02:26;;;;;;;24.15;7.95;;;3.20;99.90;;;;;;5042964;28;20033;-72
2023/02/24 10:05:05;;;;;;;18.65;7.68;;;3.20;99.90;;;;;;5036786;28;20116;-71
2023/02/24 10:07:37;;;;;;;19.75;7.60;;;3.20;99.90;;;;;;5040875;28;20072;-73
2023/02/24 10:10:34;;;;;;;14.10;7.28;;;3.20;99.90;;;;;;5038720;28;20036;-75
2023/02/24 10:13:16;;;;;;;21.85;8.18;;;3.20;99.90;;;;;;5040788;28;20041;-73
2023/02/24 10:18:34;;;;;;;24.83;8.32;;;3.20;99.90;;;;;;5031091;28;20128;-73
2023/02/24 10:21:48;;;;;;;17.42;7.72;;;3.20;99.90;;;;;;5035550;28;20044;-72
2023/02/24 10:24:28;;;;;;;19.17;7.22;;;3.20;99.90;;;;;;5041512;28;20033;-73
2023/02/24 10:27:23;;;;;;;16.42;6.90;;;3.20;99.90;;;;;;5039993;28;20152;-72
2023/02/24 10:30:09;;;;;;;15.77;7.45;;;3.30;99.90;;;;;;5042504;28;20079;-72
2023/02/24 10:32:45;;;;;;;16.05;6.68;;;3.20;99.90;;;;;;5041959;28;20041;-74
2023/02/24 10:35:24;;;;;;;17.60;6.78;;;3.30;99.90;;;;;;5041531;28;20026;-73
2023/02/24 10:38:03;;;;;;;22.33;7.05;;;3.30;99.90;;;;;;5037577;28;20045;-72
2023/02/24 10:41:18;;;;;;;18.88;7.65;;;3.30;99.90;;;;;;5041619;28;20053;-72
2023/02/24 10:43:32;;;;;;;22.20;8.48;;;3.30;99.90;;;;;;5045791;28;20126;-72
2023/02/24 10:46:15;;;;;;;18.42;8.35;;;3.30;99.90;;;;;;5040345;28;20013;-73
2023/02/24 10:48:49;;;;;;;16.30;8.27;;;3.30;99.90;;;;;;5040412;28;20128;-70
2023/02/24 10:51:20;;;;;;;18.63;8.63;;;3.40;99.90;;;;;;5040312;28;20025;-73
2023/02/24 10:54:20;;;;;;;20.98;7.88;;;3.40;99.90;;;;;;5041199;28;20120;-73
2023/02/24 10:56:43;;;;;;;22.58;8.27;;;3.40;99.90;;;;;;5042719;28;20748;-73
2023/02/24 11:02:31;;;;;;;20.70;8.10;;;3.50;99.90;;;;;;5041780;28;20071;-76
2023/02/24 11:05:37;;;;;;;18.27;7.00;;;3.60;99.90;;;;;;5039293;28;20041;-71
2023/02/24 11:08:24;;;;;;;21.88;7.18;;;3.60;99.90;;;;;;5042598;28;20029;-73
2023/02/24 11:10:57;;;;;;;22.95;8.18;;;3.70;99.90;;;;;;5041462;28;20014;-72
2023/02/24 11:18:55;;;;;;;19.65;8.63;;;3.80;99.90;;;;;;5041940;28;20104;-72
2023/02/24 11:21:24;;;;;;;20.92;8.65;;;3.80;99.90;;;;;;5040591;28;20029;-75
2023/02/24 11:23:54;;;;;;;26.95;9.45;;;3.80;99.90;;;;;;5040323;28;20017;-73
2023/02/24 11:26:25;;;;;;;19.65;9.60;;;3.80;99.90;;;;;;5041416;28;20072;-75
2023/02/24 11:29:24;;;;;;;18.38;8.70;;;3.90;99.90;;;;;;5038296;28;20041;-73
2023/02/24 11:32:15;;;;;;;23.65;8.85;;;3.90;99.90;;;;;;5041753;28;20040;-74
2023/02/24 11:34:48;;;;;;;32.85;9.68;;;4.00;99.90;;;;;;5040513;28;20030;-75
2023/02/24 11:37:52;;;;;;;21.83;8.55;;;4.00;99.90;;;;;;5042120;28;20411;-73
2023/02/24 11:40:32;;;;;;;21.08;9.23;;;4.10;99.90;;;;;;5018692;28;20542;-73
2023/02/24 11:43:17;;;;;;;15.65;8.48;;;4.10;99.90;;;;;;5038298;28;20381;-74
2023/02/24 11:45:50;;;;;;;19.55;8.82;;;4.20;99.90;;;;;;5036424;28;20028;-73
2023/02/24 11:48:27;;;;;;;21.63;8.00;;;4.30;99.90;;;;;;5040797;28;20076;-76
2023/02/24 11:51:05;;;;;;;21.50;8.15;;;4.30;99.90;;;;;;5040545;28;20339;-72
2023/02/24 11:53:55;;;;;;;22.88;9.13;;;4.40;99.90;;;;;;5037181;28;20137;-75
2023/02/24 11:56:37;;;;;;;19.63;8.73;;;4.40;99.90;;;;;;5040576;28;20026;-73
2023/02/24 11:59:39;;;;;;;21.13;9.02;;;4.60;99.90;;;;;;5041026;28;20041;-73
2023/02/24 12:02:24;;;;;;;17.75;8.35;;;4.50;99.90;;;;;;4982957;28;20057;-73
2023/02/24 12:05:05;;;;;;;24.90;8.90;;;4.60;99.90;;;;;;5028696;28;20152;-73
2023/02/24 12:07:59;;;;;;;19.73;8.00;;;4.80;99.90;;;;;;5037631;28;20055;-73
2023/02/24 12:10:40;;;;;;;17.60;8.15;;;5.00;99.90;;;;;;5039629;28;20064;-75
2023/02/24 12:13:43;;;;;;;18.40;8.00;;;5.40;99.90;;;;;;5040277;28;20123;-75
2023/02/24 12:16:16;;;;;;;14.25;8.20;;;5.70;99.90;;;;;;5039089;28;20022;-74
2023/02/24 12:18:45;;;;;;;21.95;8.48;;;5.70;99.90;;;;;;5036097;28;20029;-74
2023/02/24 12:21:13;;;;;;;22.25;8.80;;;5.70;99.90;;;;;;5037792;28;20025;-73
2023/02/24 12:23:43;;;;;;;22.42;8.57;;;5.60;99.90;;;;;;5038988;28;20033;-73
2023/02/24 12:26:46;;;;;;;20.27;7.93;;;5.40;99.90;;;;;;5039605;28;20038;-73
2023/02/24 12:29:28;;;;;;;16.90;8.23;;;5.50;99.90;;;;;;5038541;28;20088;-74
2023/02/24 12:32:09;;;;;;;22.40;7.75;;;5.50;99.90;;;;;;5040511;28;20048;-72
2023/02/24 12:34:54;;;;;;;25.98;8.50;;;5.50;99.90;;;;;;5040382;28;20033;-72
2023/02/24 12:37:47;;;;;;;16.23;7.85;;;5.40;99.90;;;;;;5039529;28;20048;-75
2023/02/24 12:40:41;;;;;;;19.67;8.32;;;5.40;99.90;;;;;;5041073;28;20104;-76
2023/02/24 12:43:30;;;;;;;27.30;8.65;;;5.40;99.90;;;;;;5040822;28;20432;-74
2023/02/24 12:46:03;;;;;;;20.05;9.23;;;5.40;99.90;;;;;;5037310;28;20034;-74
2023/02/24 12:48:34;;;;;;;28.55;9.73;;;5.30;99.90;;;;;;5039798;28;20057;-73
2023/02/24 12:51:10;;;;;;;22.17;9.98;;;5.30;99.90;;;;;;5040069;28;20017;-73
2023/02/24 12:53:48;;;;;;;25.58;9.52;;;5.30;99.90;;;;;;5039333;28;20068;-73
2023/02/24 12:56:16;;;;;;;25.90;9.52;;;5.30;99.90;;;;;;5039605;28;20079;-74
2023/02/24 12:58:46;;;;;;;25.63;10.57;;;5.30;99.90;;;;;;5039738;28;20025;-73
2023/02/24 13:01:39;;;;;;;29.83;9.93;;;5.30;99.90;;;;;;5055899;28;20712;-75
2023/02/24 13:04:39;;;;;;;26.10;9.68;;;5.50;99.90;;;;;;5040686;28;20033;-73
2023/02/24 13:07:35;;;;;;;23.45;9.85;;;5.50;99.90;;;;;;5038572;28;20068;-73
2023/02/24 13:10:23;;;;;;;52.60;19.98;;;5.60;99.90;;;;;;5038422;28;20088;-75
2023/02/24 13:13:01;;;;;;;31.85;13.57;;;5.80;99.90;;;;;;5039421;28;20113;-74
2023/02/24 13:15:30;;;;;;;32.30;10.02;;;6.60;99.90;;;;;;5036741;28;20105;-75
2023/02/24 13:17:56;;;;;;;27.38;9.02;;;7.20;99.90;;;;;;5038130;28;20034;-74
2023/02/24 13:20:25;;;;;;;36.55;9.52;;;7.30;99.90;;;;;;5040962;28;20037;-76
2023/02/24 13:22:51;;;;;;;33.08;9.13;;;7.40;99.90;;;;;;5041847;28;20029;-72
2023/02/24 13:25:20;;;;;;;26.80;8.77;;;7.50;99.90;;;;;;5041940;28;20101;-72
2023/02/24 13:27:56;;;;;;;18.92;6.32;;;7.50;99.90;;;;;;5040765;28;20096;-75
2023/02/24 13:30:58;;;;;;;22.63;6.53;;;7.30;99.90;;;;;;5042796;28;20030;-73
2023/02/24 13:33:28;;;;;;;24.52;7.10;;;7.20;99.90;;;;;;5035442;28;20041;-74
2023/02/24 13:36:06;;;;;;;21.58;5.95;;;7.00;99.90;;;;;;5039729;28;20030;-73
2023/02/24 13:38:31;;;;;;;21.70;4.97;;;6.90;99.90;;;;;;5042655;28;20022;-73
2023/02/24 13:41:07;;;;;;;24.17;4.35;;;6.70;99.90;;;;;;5042717;28;20479;-73
2023/02/24 13:43:33;;;;;;;22.27;4.40;;;6.60;99.90;;;;;;5035151;28;20033;-75
2023/02/24 13:46:02;;;;;;;23.40;5.47;;;6.40;99.90;;;;;;5031972;28;20040;-77